Aviation Digital Data Service (ADDS)

Output produced by METARs form (1158 UTC 26 March 2019)
found at http://www.aviationweather.gov/metar/data/
 
FKKD 261100Z VRB03KT 9999 BKN016 FEW020CB 33/26 Q1011 NOSIG
TAF FKKD 261100Z 2612/2718 24005KT 9999 BKN016 FEW020CB 
     PROB40 2622/2706 TS BKN013 FEW020CB
       
FKKR 261100Z 30006KT 6000 NSC 38/06 Q1011 NOSIG
TAF FKKR 260500Z 2606/2618 VRB05KT 4000 DU NSC
       
FKKN 261100Z 36010KT 8000 NSC 31/10 Q1017
FKYS 261100Z 20003KT 120V260 9999 SCT020 30/22 Q1017 NOSIG
TAF FKYS 261100Z 2612/2712 26005KT 9999 BKN016 
     PROB40 2615/2620 TS BKN013 FEW020CB 
     BECMG 2621/2623 BKN006 
     BECMG 2707/2709 BKN016